createdAt,value
2022-09-03T00:00:11.734Z,42.50
2022-09-03T00:02:49.662Z,43.01
2022-09-03T00:05:49.927Z,42.58
2022-09-03T00:08:41.003Z,42.45
2022-09-03T00:11:18.775Z,42.65
2022-09-03T00:13:51.739Z,42.60
2022-09-03T00:16:22.191Z,43.08
2022-09-03T00:18:58.934Z,43.17
2022-09-03T00:21:45.866Z,43.05
2022-09-03T00:24:17.120Z,43.10
2022-09-03T00:26:52.013Z,43.37
2022-09-03T00:29:23.272Z,43.17
2022-09-03T00:32:04.251Z,43.50
2022-09-03T00:34:41.608Z,43.78
2022-09-03T00:37:14.407Z,44.03
2022-09-03T00:39:42.902Z,43.66
2022-09-03T00:42:09.742Z,43.86
2022-09-03T00:44:48.544Z,44.20
2022-09-03T00:47:28.299Z,44.22
2022-09-03T00:50:00.335Z,44.06
2022-09-03T00:52:55.057Z,44.25
2022-09-03T00:55:27.681Z,44.18
2022-09-03T00:58:11.490Z,43.94
2022-09-03T01:00:43.660Z,43.81
2022-09-03T01:03:16.755Z,43.83
2022-09-03T01:06:02.115Z,43.96
2022-09-03T01:08:39.468Z,44.16
2022-09-03T01:11:19.206Z,44.04
2022-09-03T01:14:03.323Z,44.13
2022-09-03T01:16:53.844Z,44.18
2022-09-03T01:19:35.777Z,44.82
2022-09-03T01:22:44.926Z,44.48
2022-09-03T01:25:11.532Z,44.93
2022-09-03T01:27:47.262Z,44.96
2022-09-03T01:30:18.713Z,44.70
2022-09-03T01:32:53.130Z,44.84
2022-09-03T01:35:47.712Z,45.24
2022-09-03T01:38:14.326Z,45.11
2022-09-03T01:40:48.016Z,45.77
2022-09-03T01:43:22.671Z,45.82
2022-09-03T01:46:01.664Z,45.94
2022-09-03T01:48:44.868Z,46.38
2022-09-03T01:51:24.116Z,46.51
2022-09-03T01:53:52.275Z,46.50
2022-09-03T01:56:50.039Z,46.39
2022-09-03T01:59:31.396Z,46.92
2022-09-03T02:02:21.489Z,46.78
2022-09-03T02:05:08.915Z,47.22
2022-09-03T02:07:46.066Z,46.85
2022-09-03T02:10:21.258Z,47.13
2022-09-03T02:12:53.604Z,47.33
2022-09-03T02:15:23.096Z,47.17
2022-09-03T02:17:55.716Z,47.49
2022-09-03T02:20:26.164Z,47.87
2022-09-03T02:22:54.408Z,47.32
2022-09-03T02:25:23.727Z,47.27
2022-09-03T02:27:51.174Z,47.50
2022-09-03T02:30:18.725Z,47.83
2022-09-03T02:32:47.525Z,47.29
2022-09-03T02:35:14.215Z,47.79
2022-09-03T02:37:40.928Z,47.86
2022-09-03T02:40:10.429Z,48.07
2022-09-03T02:42:37.147Z,47.80
2022-09-03T02:45:14.256Z,48.23
2022-09-03T02:47:45.062Z,48.51
2022-09-03T02:50:11.787Z,48.24
2022-09-03T02:52:38.691Z,48.14
2022-09-03T02:55:06.015Z,48.30
2022-09-03T02:57:32.619Z,48.31
2022-09-03T02:59:59.254Z,47.92
2022-09-03T03:02:26.126Z,48.10
2022-09-03T03:04:53.343Z,48.63
2022-09-03T03:07:20.037Z,48.67
2022-09-03T03:09:46.613Z,48.74
2022-09-03T03:12:13.497Z,48.74
2022-09-03T03:14:40.140Z,49.05
2022-09-03T03:17:06.805Z,49.16
2022-09-03T03:19:33.852Z,49.51
2022-09-03T03:22:00.521Z,49.58
2022-09-03T03:24:27.118Z,49.34
2022-09-03T03:26:58.332Z,49.31
2022-09-03T03:29:25.807Z,49.45
2022-09-03T03:31:52.573Z,49.51
2022-09-03T03:34:19.228Z,49.08
2022-09-03T03:36:45.888Z,49.46
2022-09-03T03:39:13.040Z,49.37
2022-09-03T03:41:39.643Z,49.38
2022-09-03T03:44:08.984Z,49.58
2022-09-03T03:46:41.171Z,49.67
2022-09-03T03:49:09.004Z,49.94
2022-09-03T03:51:38.089Z,49.95
2022-09-03T03:54:05.873Z,50.25
2022-09-03T03:56:33.812Z,50.37
2022-09-03T03:59:00.850Z,50.27
2022-09-03T04:01:29.123Z,49.82
2022-09-03T04:03:56.859Z,49.92
2022-09-03T04:06:23.693Z,50.13
2022-09-03T04:08:50.670Z,50.98
2022-09-03T04:11:20.007Z,50.72
2022-09-03T04:13:50.599Z,50.55
2022-09-03T04:16:23.232Z,50.91
2022-09-03T04:18:51.039Z,51.24
2022-09-03T04:21:20.539Z,51.15
2022-09-03T04:23:48.965Z,51.33
2022-09-03T04:26:24.379Z,51.27
2022-09-03T04:28:51.388Z,51.16
2022-09-03T04:31:19.866Z,51.52
2022-09-03T04:33:47.132Z,51.51
2022-09-03T04:36:17.078Z,51.45
2022-09-03T04:38:46.035Z,51.56
2022-09-03T04:41:15.078Z,51.78
2022-09-03T04:43:43.548Z,51.38
2022-09-03T04:46:17.592Z,51.82
2022-09-03T04:48:50.310Z,51.51
2022-09-03T04:51:22.624Z,51.77
2022-09-03T04:53:54.799Z,51.62
2022-09-03T04:56:24.545Z,52.06
2022-09-03T04:58:56.136Z,52.17
2022-09-03T05:01:24.552Z,51.69
2022-09-03T05:03:52.419Z,52.04
2022-09-03T05:06:19.732Z,51.96
2022-09-03T05:08:50.646Z,52.25
2022-09-03T05:11:18.021Z,51.89
2022-09-03T05:13:49.067Z,52.18
2022-09-03T05:16:18.453Z,51.96
2022-09-03T05:18:46.068Z,51.85
2022-09-03T05:21:15.176Z,51.95
2022-09-03T05:23:45.086Z,51.88
2022-09-03T05:26:14.151Z,51.92
2022-09-03T05:28:42.079Z,52.04
2022-09-03T05:31:11.949Z,52.11
2022-09-03T05:33:47.331Z,51.55
2022-09-03T05:36:19.841Z,51.30
2022-09-03T05:38:47.824Z,51.08
2022-09-03T05:41:16.662Z,51.17
2022-09-03T05:43:47.386Z,50.95
2022-09-03T05:46:18.757Z,50.97
2022-09-03T05:48:46.103Z,50.36
2022-09-03T05:51:16.408Z,50.11
2022-09-03T05:53:45.445Z,49.93
2022-09-03T05:56:14.727Z,49.53
2022-09-03T05:58:47.098Z,49.84
2022-09-03T06:01:16.707Z,49.48
2022-09-03T06:03:45.170Z,49.26
2022-09-03T06:06:14.110Z,49.72
2022-09-03T06:08:42.421Z,49.35
2022-09-03T06:11:09.515Z,49.26
2022-09-03T06:13:36.587Z,49.68
2022-09-03T06:16:05.933Z,49.92
2022-09-03T06:18:32.784Z,50.18
2022-09-03T06:21:05.166Z,50.11
2022-09-03T06:23:33.105Z,49.67
2022-09-03T06:26:13.819Z,49.78
2022-09-03T06:28:43.701Z,49.30
2022-09-03T06:31:15.283Z,49.16
2022-09-03T06:33:43.095Z,49.11
2022-09-03T06:36:13.484Z,49.16
2022-09-03T06:38:41.020Z,49.43
2022-09-03T06:41:13.242Z,49.44
2022-09-03T06:43:42.119Z,49.07
2022-09-03T06:46:11.654Z,48.42
2022-09-03T06:48:40.837Z,48.33
2022-09-03T06:51:13.245Z,48.16
2022-09-03T06:53:43.089Z,48.17
2022-09-03T06:56:12.541Z,47.90
2022-09-03T06:58:44.929Z,48.42
2022-09-03T07:01:16.794Z,47.80
2022-09-03T07:03:45.058Z,47.28
2022-09-03T07:06:13.354Z,47.30
2022-09-03T07:08:40.452Z,47.33
2022-09-03T07:11:11.874Z,46.74
2022-09-03T07:13:41.253Z,46.57
2022-09-03T07:16:19.326Z,46.87
2022-09-03T07:18:46.703Z,46.21
2022-09-03T07:21:16.936Z,46.30
2022-09-03T07:23:44.082Z,46.17
2022-09-03T07:26:14.639Z,45.85
2022-09-03T07:28:42.853Z,45.49
2022-09-03T07:31:22.733Z,45.75
2022-09-03T07:33:49.349Z,45.26
2022-09-03T07:36:17.666Z,45.09
2022-09-03T07:38:45.713Z,45.51
2022-09-03T07:41:23.904Z,44.83
2022-09-03T07:43:54.918Z,44.71
2022-09-03T07:46:24.254Z,44.88
2022-09-03T07:48:56.554Z,44.40
2022-09-03T07:51:28.446Z,44.39
2022-09-03T07:53:57.818Z,44.68
2022-09-03T07:56:25.985Z,43.76
2022-09-03T07:58:53.368Z,43.49
2022-09-03T08:01:23.815Z,42.83
2022-09-03T08:03:51.860Z,41.87
2022-09-03T08:06:20.657Z,42.02
2022-09-03T08:08:47.754Z,41.53
2022-09-03T08:11:14.487Z,41.43
2022-09-03T08:13:42.999Z,41.27
2022-09-03T08:16:09.870Z,41.27
2022-09-03T08:18:38.547Z,40.40
2022-09-03T08:21:16.990Z,40.83
2022-09-03T08:23:45.727Z,40.83
2022-09-03T08:26:13.801Z,40.37
2022-09-03T08:28:43.271Z,40.58
2022-09-03T08:31:21.830Z,40.43
2022-09-03T08:33:53.541Z,39.66
2022-09-03T08:36:22.868Z,39.92
2022-09-03T08:38:55.194Z,39.62
2022-09-03T08:41:50.374Z,39.43
2022-09-03T08:44:24.275Z,39.79
2022-09-03T08:47:06.214Z,39.11
2022-09-03T08:49:48.511Z,39.50
2022-09-03T08:52:27.138Z,38.83
2022-09-03T08:55:03.183Z,39.18
2022-09-03T08:57:37.920Z,39.03
2022-09-03T09:00:05.096Z,38.82
2022-09-03T09:02:47.352Z,38.68
2022-09-03T09:05:24.844Z,38.98
2022-09-03T09:08:13.106Z,38.79
2022-09-03T09:10:48.300Z,38.66
2022-09-03T09:13:16.794Z,38.71
2022-09-03T09:15:54.742Z,38.80
2022-09-03T09:18:28.599Z,38.93
2022-09-03T09:21:00.528Z,39.15
2022-09-03T09:23:31.963Z,39.40
2022-09-03T09:26:05.589Z,39.09
2022-09-03T09:28:39.362Z,39.38
2022-09-03T09:31:15.412Z,39.67
2022-09-03T09:33:42.635Z,39.16
2022-09-03T09:36:15.472Z,39.57
2022-09-03T09:38:43.633Z,39.46
2022-09-03T09:41:10.840Z,39.53
2022-09-03T09:43:39.184Z,39.46
2022-09-03T09:46:16.717Z,39.81
2022-09-03T09:48:58.553Z,39.65
2022-09-03T09:51:30.985Z,39.81
2022-09-03T09:54:14.454Z,40.02
2022-09-03T09:56:42.995Z,40.18
2022-09-03T09:59:11.491Z,40.12
2022-09-03T10:01:40.358Z,40.04
2022-09-03T10:04:13.183Z,40.45
2022-09-03T10:06:57.202Z,40.28
2022-09-03T10:09:30.884Z,40.43
2022-09-03T10:11:58.302Z,40.54
2022-09-03T10:14:35.411Z,40.36
2022-09-03T10:17:36.774Z,40.62
2022-09-03T10:20:28.284Z,40.75
2022-09-03T10:23:14.939Z,40.77
2022-09-03T10:25:57.218Z,41.18
2022-09-03T10:28:29.830Z,41.42
2022-09-03T10:31:19.332Z,41.79
2022-09-03T10:34:04.994Z,41.64
2022-09-03T10:36:37.480Z,42.21
2022-09-03T10:39:06.359Z,41.82
2022-09-03T10:42:20.283Z,41.57
2022-09-03T10:45:00.808Z,41.24
2022-09-03T10:48:04.880Z,40.99
2022-09-03T10:50:38.464Z,41.64
2022-09-03T10:53:24.927Z,41.53
2022-09-03T10:55:57.523Z,41.71
2022-09-03T10:58:27.513Z,42.27
2022-09-03T11:01:15.336Z,42.43
2022-09-03T11:04:20.270Z,41.48
2022-09-03T11:06:58.316Z,42.05
2022-09-03T11:09:31.685Z,41.88
2022-09-03T11:12:05.437Z,42.50
2022-09-03T11:14:38.662Z,42.37
2022-09-03T11:17:16.738Z,42.65
2022-09-03T11:19:51.382Z,43.10
2022-09-03T11:22:20.933Z,43.71
2022-09-03T11:24:59.839Z,43.27
2022-09-03T11:27:26.325Z,42.62
2022-09-03T11:30:02.304Z,42.61
2022-09-03T11:32:34.871Z,43.01
2022-09-03T11:35:01.703Z,43.16
2022-09-03T11:37:30.661Z,43.92
2022-09-03T11:40:13.588Z,43.76
2022-09-03T11:42:42.882Z,44.20
2022-09-03T11:45:14.928Z,44.97
2022-09-03T11:47:43.795Z,44.25
2022-09-03T11:50:25.665Z,44.85
2022-09-03T11:52:56.781Z,44.52
2022-09-03T11:55:40.870Z,44.49
2022-09-03T11:58:27.174Z,44.26
2022-09-03T12:00:55.543Z,44.06
2022-09-03T12:03:28.669Z,43.79
2022-09-03T12:06:20.679Z,43.87
2022-09-03T12:08:53.046Z,43.51
2022-09-03T12:11:37.922Z,43.25
2022-09-03T12:14:50.381Z,43.35
2022-09-03T12:17:28.804Z,43.23
2022-09-03T12:19:58.249Z,42.69
2022-09-03T12:22:31.292Z,42.54
2022-09-03T12:25:09.243Z,42.02
2022-09-03T12:27:40.300Z,42.38
2022-09-03T12:30:16.361Z,40.92
2022-09-03T12:32:43.607Z,41.45
2022-09-03T12:38:24.083Z,40.22
2022-09-03T12:43:38.145Z,41.01
2022-09-03T12:46:10.741Z,40.82
2022-09-03T12:48:40.440Z,40.96
2022-09-03T12:53:54.241Z,40.67
2022-09-03T12:56:22.442Z,40.47
2022-09-03T12:59:04.364Z,39.85
2022-09-03T13:01:45.955Z,40.33
2022-09-03T13:04:18.046Z,40.55
2022-09-03T13:06:53.883Z,40.44
2022-09-03T13:09:24.977Z,41.23
2022-09-03T13:11:52.623Z,41.08
2022-09-03T13:14:20.125Z,40.80
2022-09-03T13:16:46.810Z,40.52
2022-09-03T13:19:22.604Z,40.44
2022-09-03T13:22:04.758Z,41.10
2022-09-03T13:24:49.877Z,41.06
2022-09-03T13:27:45.083Z,41.24
2022-09-03T13:30:21.399Z,41.33
2022-09-03T13:33:03.223Z,41.70
2022-09-03T13:35:42.696Z,41.84
2022-09-03T13:38:36.465Z,42.05
2022-09-03T13:41:15.126Z,41.82
2022-09-03T13:43:54.047Z,41.75
2022-09-03T13:46:32.145Z,41.78
2022-09-03T13:49:46.958Z,41.19
2022-09-03T13:52:22.823Z,39.66
2022-09-03T13:55:03.071Z,39.01
2022-09-03T13:57:54.242Z,38.79
2022-09-03T14:00:29.167Z,38.60
2022-09-03T14:03:09.223Z,37.99
2022-09-03T14:06:14.521Z,37.33
2022-09-03T14:09:23.563Z,36.00
2022-09-03T14:12:01.400Z,35.92
2022-09-03T14:14:43.085Z,35.16
2022-09-03T14:17:26.392Z,35.16
2022-09-03T14:20:13.119Z,35.35
2022-09-03T14:22:52.144Z,36.35
2022-09-03T14:25:22.620Z,36.54
2022-09-03T14:27:49.750Z,36.87
2022-09-03T14:30:38.488Z,36.17
2022-09-03T14:33:33.370Z,36.30
2022-09-03T14:36:37.412Z,35.89
2022-09-03T14:39:32.535Z,35.77
2022-09-03T14:42:16.938Z,35.48
2022-09-03T14:45:05.095Z,35.99
2022-09-03T14:48:22.217Z,36.09
2022-09-03T14:50:58.244Z,36.77
2022-09-03T14:53:49.764Z,37.18
2022-09-03T14:56:27.008Z,37.06
2022-09-03T14:59:24.619Z,37.07
2022-09-03T15:02:21.605Z,36.82
2022-09-03T15:05:00.224Z,36.81
2022-09-03T15:07:41.216Z,36.83
2022-09-03T15:10:37.823Z,37.56
2022-09-03T15:13:15.933Z,38.20
2022-09-03T15:15:42.841Z,39.34
2022-09-03T15:18:43.121Z,39.54
2022-09-03T15:21:41.021Z,40.26
2022-09-03T15:24:38.129Z,40.66
2022-09-03T15:27:33.868Z,40.79
2022-09-03T15:30:06.460Z,40.78
2022-09-03T15:32:57.972Z,41.24
2022-09-03T15:35:41.431Z,41.51
2022-09-03T15:40:48.853Z,41.81
2022-09-03T15:43:29.849Z,41.64
2022-09-03T15:46:12.171Z,41.76
2022-09-03T15:48:51.975Z,42.12
2022-09-03T15:51:28.444Z,41.79
2022-09-03T15:54:03.874Z,41.97
2022-09-03T15:56:40.846Z,41.82
2022-09-03T15:59:41.174Z,41.78
2022-09-03T16:02:14.638Z,41.93
2022-09-03T16:04:53.463Z,41.98
2022-09-03T16:07:49.340Z,42.33
2022-09-03T16:10:24.774Z,42.38
2022-09-03T16:13:05.177Z,42.17
2022-09-03T16:15:47.339Z,42.09
2022-09-03T16:19:02.449Z,42.14
2022-09-03T16:22:26.411Z,42.38
2022-09-03T16:25:09.396Z,42.48
2022-09-03T16:27:52.702Z,42.16
2022-09-03T16:31:08.115Z,42.28
2022-09-03T16:33:46.809Z,42.16
2022-09-03T16:36:17.456Z,42.18
2022-09-03T16:39:36.978Z,42.30
2022-09-03T16:42:25.296Z,42.35
2022-09-03T16:45:15.127Z,42.43
2022-09-03T16:47:59.807Z,41.70
2022-09-03T16:50:52.077Z,42.61
2022-09-03T16:53:56.695Z,42.33
2022-09-03T16:56:42.164Z,42.51
2022-09-03T16:59:17.993Z,42.71
2022-09-03T17:02:09.937Z,42.57
2022-09-03T17:04:59.853Z,42.24
2022-09-03T17:07:52.151Z,42.58
2022-09-03T17:10:31.768Z,43.10
2022-09-03T17:13:19.944Z,43.61
2022-09-03T17:16:21.728Z,43.89
2022-09-03T17:19:07.378Z,44.75
2022-09-03T17:21:38.517Z,45.46
2022-09-03T17:24:55.052Z,45.91
2022-09-03T17:27:33.566Z,47.02
2022-09-03T17:30:08.245Z,47.23
2022-09-03T17:32:46.726Z,47.84
2022-09-03T17:35:19.953Z,48.88
2022-09-03T17:38:08.246Z,49.91
2022-09-03T17:40:47.464Z,50.44
2022-09-03T17:43:28.499Z,51.33
2022-09-03T17:46:10.788Z,51.49
2022-09-03T17:49:07.066Z,50.64
2022-09-03T17:51:47.631Z,50.69
2022-09-03T17:54:26.182Z,50.44
2022-09-03T17:57:19.788Z,51.94
2022-09-03T18:00:05.879Z,52.85
2022-09-03T18:02:35.423Z,53.79
2022-09-03T18:05:18.495Z,54.16
2022-09-03T18:08:00.383Z,53.99
2022-09-03T18:10:43.353Z,54.85
2022-09-03T18:13:16.934Z,55.48
2022-09-03T18:16:22.224Z,55.80
2022-09-03T18:18:53.465Z,55.64
2022-09-03T18:21:43.678Z,56.11
2022-09-03T18:24:37.725Z,56.29
2022-09-03T18:27:30.720Z,55.91
2022-09-03T18:30:22.810Z,56.05
2022-09-03T18:33:08.152Z,55.88
2022-09-03T18:35:53.571Z,55.87
2022-09-03T18:38:56.012Z,56.03
2022-09-03T18:42:05.779Z,55.78
2022-09-03T18:45:23.050Z,55.97
2022-09-03T18:48:25.867Z,56.38
2022-09-03T18:51:38.885Z,57.32
2022-09-03T18:55:06.172Z,57.85
2022-09-03T18:58:23.158Z,58.61
2022-09-03T19:01:37.105Z,58.91
2022-09-03T19:04:48.354Z,59.87
2022-09-03T19:07:39.731Z,60.24
2022-09-03T19:10:40.229Z,60.70
2022-09-03T19:13:34.313Z,60.73
2022-09-03T19:16:29.673Z,61.06
2022-09-03T19:19:31.181Z,61.69
2022-09-03T19:22:59.561Z,61.66
2022-09-03T19:25:47.154Z,62.08
2022-09-03T19:28:39.691Z,61.66
2022-09-03T19:31:30.836Z,61.44
2022-09-03T19:34:35.712Z,61.01
2022-09-03T19:37:46.197Z,61.07
2022-09-03T19:41:01.943Z,61.03
2022-09-03T19:44:06.032Z,61.24
2022-09-03T19:47:03.604Z,61.79
2022-09-03T19:50:07.421Z,61.89
2022-09-03T19:53:13.753Z,61.72
2022-09-03T19:56:07.915Z,62.02
2022-09-03T19:58:56.818Z,62.31
2022-09-03T20:01:48.643Z,62.42
2022-09-03T20:04:34.721Z,62.85
2022-09-03T20:07:23.647Z,62.83
2022-09-03T20:10:10.078Z,62.93
2022-09-03T20:12:40.100Z,63.02
2022-09-03T20:15:08.146Z,63.34
2022-09-03T20:17:50.021Z,63.37
2022-09-03T20:20:25.248Z,63.69
2022-09-03T20:23:10.332Z,63.91
2022-09-03T20:26:12.687Z,63.67
2022-09-03T20:29:02.537Z,64.20
2022-09-03T20:31:45.457Z,64.37
2022-09-03T20:34:59.095Z,64.44
2022-09-03T20:37:36.390Z,64.63
2022-09-03T20:40:38.183Z,64.95
2022-09-03T20:44:02.154Z,65.23
2022-09-03T20:46:49.853Z,65.13
2022-09-03T20:49:40.630Z,65.20
2022-09-03T20:52:21.100Z,64.82
2022-09-03T20:55:12.989Z,65.04
2022-09-03T20:57:54.922Z,65.25
2022-09-03T21:00:23.650Z,65.36
2022-09-03T21:03:14.469Z,65.00
2022-09-03T21:05:45.977Z,65.18
2022-09-03T21:08:18.461Z,65.24
2022-09-03T21:10:56.444Z,65.69
2022-09-03T21:13:32.818Z,65.53
2022-09-03T21:16:15.296Z,65.36
2022-09-03T21:18:59.310Z,65.75
2022-09-03T21:21:54.407Z,65.39
2022-09-03T21:24:31.603Z,65.37
2022-09-03T21:27:04.637Z,65.34
2022-09-03T21:29:41.500Z,65.21
2022-09-03T21:32:18.716Z,65.18
2022-09-03T21:35:03.979Z,65.25
2022-09-03T21:37:35.198Z,65.40
2022-09-03T21:40:02.405Z,65.64
2022-09-03T21:42:52.937Z,65.17
2022-09-03T21:45:29.645Z,65.28
2022-09-03T21:48:20.150Z,65.70
2022-09-03T21:50:47.552Z,65.46
2022-09-03T21:53:27.131Z,65.54
2022-09-03T21:56:26.150Z,65.46
2022-09-03T21:59:23.398Z,65.47
2022-09-03T22:02:11.074Z,65.53
2022-09-03T22:04:37.760Z,66.00
2022-09-03T22:07:07.472Z,65.48
2022-09-03T22:09:50.975Z,65.90
2022-09-03T22:12:24.272Z,65.84
2022-09-03T22:14:53.511Z,65.96
2022-09-03T22:17:28.062Z,66.21
2022-09-03T22:19:54.598Z,65.85
2022-09-03T22:22:30.263Z,66.10
2022-09-03T22:25:29.810Z,66.01
2022-09-03T22:28:10.175Z,66.31
2022-09-03T22:30:42.430Z,66.15
2022-09-03T22:33:40.355Z,66.35
2022-09-03T22:36:15.122Z,66.37
2022-09-03T22:39:02.723Z,66.57
2022-09-03T22:42:08.415Z,67.20
2022-09-03T22:45:03.438Z,67.34
2022-09-03T22:47:37.156Z,67.69
2022-09-03T22:50:28.868Z,68.09
2022-09-03T22:53:17.281Z,68.22
2022-09-03T22:56:01.543Z,68.72
2022-09-03T22:58:34.742Z,68.97
2022-09-03T23:01:10.743Z,68.77
2022-09-03T23:03:48.461Z,68.26
2022-09-03T23:06:26.164Z,68.13
2022-09-03T23:09:00.323Z,68.13
2022-09-03T23:11:36.649Z,68.09
2022-09-03T23:14:09.868Z,68.06
2022-09-03T23:16:42.582Z,68.68
2022-09-03T23:21:53.412Z,69.21
2022-09-03T23:24:33.115Z,69.35
2022-09-03T23:27:03.533Z,69.63
2022-09-03T23:29:52.133Z,69.41
2022-09-03T23:32:18.873Z,69.81
2022-09-03T23:34:45.556Z,69.65
2022-09-03T23:37:36.672Z,69.71
2022-09-03T23:40:03.713Z,70.72
2022-09-03T23:43:01.027Z,70.64
2022-09-03T23:45:46.458Z,70.67
2022-09-03T23:48:37.929Z,70.88
2022-09-03T23:51:33.517Z,70.65
2022-09-03T23:54:37.742Z,70.87
2022-09-03T23:57:06.975Z,70.73
